Time;durP1;ratioP1;P1;durP2;ratioP2;P2;SDS_P1;SDS_P2;PMS_P1;PMS_P2;Temp;Humidity;BMP_temperature;BMP_pressure;BME280_temperature;BME280_humidity;BME280_pressure;Samples;Min_cycle;Max_cycle;Signal;HPM_P1;HPM_P2
2022/11/17 00:00:43;;;;;;;2.05;0.80;;;;;;;10.21;100.00;96612.19;4123685;28;20217;-48
2022/11/17 00:02:46;;;;;;;2.25;1.00;;;;;;;10.11;100.00;96609.56;4140891;28;20684;-49
2022/11/17 00:04:51;;;;;;;1.00;0.82;;;;;;;10.17;100.00;96608.41;4138500;28;20256;-49
2022/11/17 00:06:52;;;;;;;1.40;1.15;;;;;;;10.24;100.00;96597.91;4138394;28;20211;-48
2022/11/17 00:08:54;;;;;;;2.42;1.10;;;;;;;10.20;100.00;96588.69;4151288;28;20201;-49
2022/11/17 00:11:03;;;;;;;0.88;0.88;;;;;;;10.23;100.00;96585.38;4132556;28;20734;-48
2022/11/17 00:15:25;;;;;;;0.63;0.60;;;;;;;10.12;100.00;96572.94;4136482;28;20221;-48
2022/11/17 00:17:27;;;;;;;1.35;1.08;;;;;;;10.19;100.00;96568.75;4141613;28;20626;-48
2022/11/17 00:21:49;;;;;;;0.85;0.85;;;;;;;10.24;100.00;96567.84;4140279;28;20213;-48
2022/11/17 00:23:50;;;;;;;3.08;1.55;;;;;;;10.14;100.00;96557.09;4149528;28;20233;-50
2022/11/17 00:25:52;;;;;;;0.80;0.80;;;;;;;10.15;100.00;96547.78;4141480;28;20212;-49
2022/11/17 00:27:54;;;;;;;1.02;0.90;;;;;;;10.15;100.00;96545.03;4140586;28;20292;-49
2022/11/17 00:29:56;;;;;;;4.57;1.80;;;;;;;10.05;100.00;96546.00;4133967;28;20702;-49
2022/11/17 00:34:22;;;;;;;2.15;1.00;;;;;;;10.16;100.00;96541.19;4144398;28;20208;-48
2022/11/17 00:36:25;;;;;;;1.30;1.00;;;;;;;10.20;100.00;96545.78;4140625;28;20288;-48
2022/11/17 00:38:26;;;;;;;0.90;0.90;;;;;;;10.12;100.00;96540.97;4133021;28;20302;-49
2022/11/17 00:40:29;;;;;;;1.35;0.80;;;;;;;10.02;100.00;96540.28;4127727;28;20220;-48
2022/11/17 00:42:30;;;;;;;0.85;0.70;;;;;;;10.12;100.00;96534.69;4136702;28;20291;-50
2022/11/17 00:44:32;;;;;;;1.10;0.95;;;;;;;10.13;100.00;96519.91;4135609;28;20244;-48
2022/11/17 00:46:36;;;;;;;8.55;0.90;;;;;;;10.08;100.00;96517.28;4137916;28;20212;-48
2022/11/17 00:48:37;;;;;;;0.73;0.73;;;;;;;10.12;100.00;96521.03;4139655;28;20212;-48
2022/11/17 00:50:39;;;;;;;0.88;0.68;;;;;;;10.06;100.00;96516.75;4135799;28;20296;-49
2022/11/17 00:52:41;;;;;;;0.80;0.80;;;;;;;10.08;100.00;96517.28;4138933;28;20243;-48
2022/11/17 00:54:42;;;;;;;1.30;1.10;;;;;;;10.11;100.00;96511.22;4139847;28;20325;-48
2022/11/17 00:56:44;;;;;;;6.32;1.50;;;;;;;10.01;100.00;96500.41;4139307;28;20300;-48
2022/11/17 00:58:46;;;;;;;2.60;1.15;;;;;;;10.01;100.00;96494.94;4140934;28;20216;-48
2022/11/17 01:00:48;;;;;;;0.80;0.80;;;;;;;10.09;100.00;96497.03;4114949;28;20305;-49
2022/11/17 01:02:50;;;;;;;1.17;0.90;;;;;;;10.13;100.00;96477.00;4130537;28;20230;-48
2022/11/17 01:04:51;;;;;;;0.93;0.88;;;;;;;10.10;100.00;96476.78;4151868;28;20287;-48
2022/11/17 01:06:53;;;;;;;0.70;0.70;;;;;;;10.11;100.00;96468.31;4140893;28;20255;-48
2022/11/17 01:08:58;;;;;;;0.65;0.63;;;;;;;10.05;100.00;96464.03;4140868;28;20249;-49
2022/11/17 01:11:05;;;;;;;0.90;0.90;;;;;;;10.07;100.00;96466.47;4139495;28;20208;-48
2022/11/17 01:13:06;;;;;;;1.05;0.85;;;;;;;10.04;100.00;96456.13;4152477;28;20832;-48
2022/11/17 01:15:08;;;;;;;0.77;0.77;;;;;;;10.12;100.00;96452.72;4150568;28;21443;-48
2022/11/17 01:17:10;;;;;;;1.15;0.95;;;;;;;10.19;100.00;96442.22;4141307;28;20253;-48
2022/11/17 01:19:13;;;;;;;0.73;0.68;;;;;;;10.17;100.00;96444.44;4129115;28;20208;-48
2022/11/17 01:21:17;;;;;;;0.82;0.73;;;;;;;10.21;100.00;96434.53;4142802;28;20209;-48
2022/11/17 01:23:18;;;;;;;1.30;0.75;;;;;;;10.14;100.00;96432.19;4145166;28;20235;-47
2022/11/17 01:25:20;;;;;;;1.02;1.02;;;;;;;10.22;100.00;96417.03;4131942;28;20225;-48
2022/11/17 01:27:22;;;;;;;1.40;0.90;;;;;;;10.21;100.00;96420.88;4139846;28;20205;-48
2022/11/17 01:29:23;;;;;;;1.85;1.15;;;;;;;10.23;100.00;96410.44;4140669;28;20328;-47
2022/11/17 01:31:27;;;;;;;1.00;0.90;;;;;;;10.28;100.00;96408.44;4134955;28;20300;-47
2022/11/17 01:33:30;;;;;;;1.63;1.08;;;;;;;10.28;100.00;96413.09;4135348;28;20229;-48
2022/11/17 01:35:33;;;;;;;1.63;0.90;;;;;;;10.30;100.00;96413.59;4136312;28;20234;-48
2022/11/17 01:37:34;;;;;;;0.70;0.70;;;;;;;10.30;100.00;96394.47;4137631;28;20224;-49
2022/11/17 01:39:36;;;;;;;1.63;0.90;;;;;;;10.30;100.00;96394.47;4147998;28;20229;-47
2022/11/17 01:41:38;;;;;;;1.98;1.42;;;;;;;10.30;100.00;96381.63;4149130;28;20228;-48
2022/11/17 01:43:45;;;;;;;0.93;0.93;;;;;;;10.28;100.00;96380.31;4146126;28;20649;-47
2022/11/17 01:45:47;;;;;;;0.90;0.90;;;;;;;10.28;100.00;96374.84;4146312;28;20291;-48
2022/11/17 01:47:54;;;;;;;0.88;0.88;;;;;;;10.22;100.00;96367.84;4135124;28;20240;-48
2022/11/17 01:50:04;;;;;;;0.60;0.60;;;;;;;10.21;100.00;96367.03;4135660;28;20241;-48
2022/11/17 01:52:07;;;;;;;2.75;1.10;;;;;;;10.13;100.00;96351.31;4138181;28;20577;-48
2022/11/17 01:54:10;;;;;;;0.85;0.82;;;;;;;10.19;100.00;96350.13;4152790;28;20805;-48
2022/11/17 01:56:18;;;;;;;1.17;1.08;;;;;;;10.15;100.00;96349.09;4139094;28;20231;-47
2022/11/17 01:58:25;;;;;;;0.70;0.70;;;;;;;10.19;100.00;96338.38;4139310;28;20211;-47
2022/11/17 02:00:27;;;;;;;0.90;0.90;;;;;;;10.12;100.00;96343.41;4133736;28;20206;-48
2022/11/17 02:02:29;;;;;;;1.15;0.77;;;;;;;10.23;100.00;96334.75;4137970;28;20227;-48
2022/11/17 02:04:38;;;;;;;3.47;0.82;;;;;;;10.24;100.00;96324.63;4138278;28;20778;-47
2022/11/17 02:06:40;;;;;;;1.10;0.85;;;;;;;10.28;100.00;96322.91;4135922;28;20198;-48
2022/11/17 02:08:43;;;;;;;0.70;0.70;;;;;;;10.32;100.00;96326.66;4121340;28;20209;-48
2022/11/17 02:10:46;;;;;;;0.88;0.88;;;;;;;10.27;100.00;96318.56;4120208;28;20305;-48
2022/11/17 02:12:53;;;;;;;0.75;0.75;;;;;;;10.30;100.00;96323.41;4131081;28;20240;-49
2022/11/17 02:14:55;;;;;;;1.42;0.90;;;;;;;10.29;100.00;96327.25;4134461;28;20253;-49
2022/11/17 02:16:56;;;;;;;0.90;0.90;;;;;;;10.48;100.00;96325.25;4135223;28;20398;-47
2022/11/17 02:19:08;;;;;;;0.85;0.85;;;;;;;10.51;100.00;96327.38;4135164;28;20337;-49
2022/11/17 02:21:39;;;;;;;1.85;1.20;;;;;;;10.56;100.00;96327.28;4138987;28;20215;-48
2022/11/17 02:23:59;;;;;;;1.20;0.80;;;;;;;10.63;100.00;96325.78;4129576;28;20307;-48
2022/11/17 02:26:44;;;;;;;0.70;0.70;;;;;;;10.55;100.00;96331.94;4142799;28;20200;-48
2022/11/17 02:28:51;;;;;;;0.93;0.70;;;;;;;10.51;100.00;96330.13;4112034;28;20205;-49
2022/11/17 02:31:11;;;;;;;0.70;0.70;;;;;;;10.47;100.00;96318.97;4139498;28;20209;-48
2022/11/17 02:33:22;;;;;;;0.60;0.60;;;;;;;10.50;100.00;96323.03;4156759;28;20318;-48
2022/11/17 02:35:54;;;;;;;1.00;0.90;;;;;;;10.43;100.00;96326.19;4151878;28;20243;-48
2022/11/17 02:37:56;;;;;;;0.85;0.70;;;;;;;10.49;100.00;96329.63;4149371;28;20205;-48
2022/11/17 02:40:10;;;;;;;1.00;0.77;;;;;;;10.47;100.00;96332.66;4138025;28;20320;-48
2022/11/17 02:45:03;;;;;;;1.88;0.90;;;;;;;10.59;100.00;96329.41;4139183;28;20252;-48
2022/11/17 02:47:12;;;;;;;0.70;0.70;;;;;;;10.60;100.00;96331.03;4141945;28;20292;-48
2022/11/17 02:49:26;;;;;;;1.45;1.00;;;;;;;10.67;100.00;96328.72;4154294;28;20224;-48
2022/11/17 02:51:28;;;;;;;0.70;0.70;;;;;;;10.68;100.00;96319.41;4153380;28;20251;-48
2022/11/17 02:53:30;;;;;;;0.60;0.60;;;;;;;10.66;100.00;96310.66;4143449;28;20224;-48
2022/11/17 02:55:35;;;;;;;0.85;0.85;;;;;;;10.71;100.00;96314.13;4139133;28;20230;-48
2022/11/17 02:57:39;;;;;;;1.50;0.80;;;;;;;10.70;100.00;96311.69;4138383;28;20668;-47
2022/11/17 02:59:45;;;;;;;1.33;1.00;;;;;;;10.71;100.00;96307.84;4141175;28;20296;-48
2022/11/17 03:01:46;;;;;;;3.50;1.13;;;;;;;10.66;100.00;96303.28;4147555;28;20214;-48
2022/11/17 03:04:19;;;;;;;0.77;0.77;;;;;;;10.66;100.00;96302.47;4134742;28;20233;-49
2022/11/17 03:06:21;;;;;;;1.30;1.20;;;;;;;10.64;100.00;96297.31;4154624;28;20245;-48
2022/11/17 03:08:46;;;;;;;1.27;1.10;;;;;;;10.69;100.00;96290.94;4140693;28;20241;-49
2022/11/17 03:10:59;;;;;;;1.88;0.80;;;;;;;10.70;100.00;96284.34;4152983;28;20295;-48
2022/11/17 03:13:11;;;;;;;0.95;0.88;;;;;;;10.70;100.00;96295.28;4133436;28;20225;-48
2022/11/17 03:15:38;;;;;;;0.80;0.80;;;;;;;10.68;100.00;96286.56;4145991;28;20197;-48
2022/11/17 03:17:52;;;;;;;0.85;0.85;;;;;;;10.69;100.00;96282.72;4150919;28;20201;-49
2022/11/17 03:19:59;;;;;;;0.70;0.70;;;;;;;10.70;100.00;96285.16;4148523;28;20233;-47
2022/11/17 03:22:21;;;;;;;0.68;0.68;;;;;;;10.72;100.00;96282.91;4141155;28;20236;-48
2022/11/17 03:24:32;;;;;;;0.90;0.90;;;;;;;10.69;100.00;96288.19;4152353;28;20275;-47
2022/11/17 03:26:38;;;;;;;0.95;0.85;;;;;;;10.68;100.00;96275.63;4138509;28;20228;-48
2022/11/17 03:28:40;;;;;;;0.60;0.60;;;;;;;10.67;100.00;96268.56;4138978;28;20205;-48
2022/11/17 03:30:43;;;;;;;0.95;0.95;;;;;;;10.64;100.00;96283.66;4140731;28;20213;-48
2022/11/17 03:32:48;;;;;;;0.80;0.80;;;;;;;10.64;100.00;96291.84;4124928;28;20230;-47
2022/11/17 03:35:00;;;;;;;1.35;0.93;;;;;;;10.67;100.00;96284.97;4152117;28;20292;-48
2022/11/17 03:37:04;;;;;;;1.00;0.90;;;;;;;10.66;100.00;96283.31;4125161;28;20315;-47
2022/11/17 03:39:11;;;;;;;1.48;1.38;;;;;;;10.63;100.00;96279.28;4141943;28;20205;-49
2022/11/17 03:41:14;;;;;;;0.95;0.90;;;;;;;10.61;100.00;96275.25;4122701;28;20206;-48
2022/11/17 03:43:17;;;;;;;1.25;0.90;;;;;;;10.58;100.00;96273.09;4140345;28;20319;-48
2022/11/17 03:45:22;;;;;;;4.32;1.00;;;;;;;10.61;100.00;96270.56;4139900;28;20299;-48
2022/11/17 03:47:25;;;;;;;1.00;0.90;;;;;;;10.63;100.00;96292.97;4141652;28;20714;-48
2022/11/17 03:49:33;;;;;;;0.80;0.80;;;;;;;10.66;100.00;96288.78;4138993;28;20268;-49
2022/11/17 03:51:35;;;;;;;0.95;0.95;;;;;;;10.66;100.00;96286.06;4141296;28;20297;-48
2022/11/17 03:53:37;;;;;;;1.25;0.88;;;;;;;10.70;100.00;96298.00;4138797;28;20653;-49
2022/11/17 03:55:53;;;;;;;2.05;1.15;;;;;;;10.73;100.00;96308.31;4140376;28;20221;-48
2022/11/17 03:58:07;;;;;;;1.45;0.65;;;;;;;10.64;100.00;96291.84;4141994;28;20209;-46
2022/11/17 04:00:13;;;;;;;4.45;1.23;;;;;;;10.59;100.00;96302.06;4141970;28;20301;-47
2022/11/17 04:02:22;;;;;;;0.80;0.80;;;;;;;10.48;100.00;96292.47;4129140;28;20289;-48
2022/11/17 04:04:24;;;;;;;1.30;0.93;;;;;;;10.43;100.00;96278.88;4142217;28;20205;-49
2022/11/17 04:06:25;;;;;;;0.80;0.80;;;;;;;10.34;100.00;96286.19;4150831;28;20651;-47
2022/11/17 04:08:29;;;;;;;1.23;1.10;;;;;;;10.31;100.00;96286.75;4137949;28;20213;-49
2022/11/17 04:15:54;;;;;;;1.25;0.90;;;;;;;10.26;100.00;96289.59;4151049;28;20266;-48
2022/11/17 04:16:00;;;;;;;1.13;1.02;;;;;;;10.20;100.00;96274.41;4137337;28;20301;-47
2022/11/17 04:17:35;;;;;;;1.00;1.00;;;;;;;10.18;100.00;96277.47;4130011;28;20320;-48
2022/11/17 04:19:37;;;;;;;1.42;1.27;;;;;;;10.20;100.00;96277.13;4137861;28;20609;-48
2022/11/17 04:21:39;;;;;;;4.40;0.90;;;;;;;10.19;100.00;96270.06;4137456;28;20209;-49
2022/11/17 04:23:41;;;;;;;0.93;0.93;;;;;;;10.18;100.00;96261.06;4151812;28;20761;-47
2022/11/17 04:30:28;;;;;;;1.02;1.02;;;;;;;10.24;100.00;96259.03;4139823;28;20205;-47
2022/11/17 04:32:30;;;;;;;1.23;1.20;;;;;;;10.24;100.00;96259.03;4152005;28;20721;-47
2022/11/17 04:34:32;;;;;;;1.08;1.08;;;;;;;10.21;100.00;96257.72;4152220;28;20587;-47
2022/11/17 04:36:35;;;;;;;1.02;1.00;;;;;;;10.24;100.00;96256.28;4150925;28;20312;-48
2022/11/17 04:38:48;;;;;;;2.42;1.00;;;;;;;10.29;100.00;96262.47;4116282;28;20239;-48
2022/11/17 04:43:10;;;;;;;1.20;0.80;;;;;;;10.28;100.00;96251.84;4138080;28;20221;-47
2022/11/17 04:45:12;;;;;;;1.75;0.80;;;;;;;10.31;100.00;96245.78;4147629;28;20243;-48
2022/11/17 04:47:13;;;;;;;1.77;1.20;;;;;;;10.28;100.00;96254.59;4129539;28;20211;-48
2022/11/17 04:49:17;;;;;;;0.80;0.80;;;;;;;10.31;100.00;96251.22;4117196;28;20302;-48
2022/11/17 04:51:20;;;;;;;0.80;0.80;;;;;;;10.38;100.00;96241.53;4136867;28;20313;-48
2022/11/17 04:53:22;;;;;;;0.80;0.80;;;;;;;10.33;100.00;96251.72;4139138;28;20674;-48
2022/11/17 04:55:24;;;;;;;1.10;1.10;;;;;;;10.43;100.00;96240.59;4133139;28;20280;-48
2022/11/17 04:57:26;;;;;;;1.48;1.30;;;;;;;10.45;100.00;96243.84;4122239;28;20253;-47
2022/11/17 04:59:28;;;;;;;2.60;1.00;;;;;;;10.47;100.00;96249.84;4121418;28;20210;-47
2022/11/17 05:01:30;;;;;;;0.88;0.88;;;;;;;10.48;100.00;96248.72;4127645;28;20288;-47
2022/11/17 05:03:32;;;;;;;0.80;0.80;;;;;;;10.51;100.00;96248.09;4133161;28;20267;-47
2022/11/17 05:05:35;;;;;;;0.70;0.70;;;;;;;10.51;100.00;96237.16;4135372;28;20205;-47
2022/11/17 05:07:36;;;;;;;1.20;1.05;;;;;;;10.49;100.00;96239.41;4147186;28;20542;-48
2022/11/17 05:09:38;;;;;;;0.95;0.95;;;;;;;10.51;100.00;96234.41;4124384;28;20246;-47
2022/11/17 05:14:02;;;;;;;0.93;0.63;;;;;;;10.48;100.00;96240.50;4135449;28;20312;-47
2022/11/17 05:18:24;;;;;;;1.48;1.13;;;;;;;10.57;100.00;96246.88;4136941;28;20782;-47
2022/11/17 05:20:25;;;;;;;1.55;0.90;;;;;;;10.59;100.00;96245.47;4137195;28;20839;-47
2022/11/17 05:24:47;;;;;;;1.98;1.05;;;;;;;10.68;100.00;96243.63;4135958;28;20209;-47
2022/11/17 05:26:49;;;;;;;1.70;0.90;;;;;;;10.74;100.00;96230.66;4129829;28;20602;-47
2022/11/17 05:28:53;;;;;;;2.65;0.85;;;;;;;10.83;100.00;96252.31;4135275;28;20201;-47
2022/11/17 05:30:54;;;;;;;3.90;2.08;;;;;;;10.80;100.00;96252.09;4132266;28;20755;-47
2022/11/17 05:32:56;;;;;;;2.70;0.70;;;;;;;10.78;100.00;96255.13;4140644;28;20233;-47
2022/11/17 05:34:57;;;;;;;0.98;0.90;;;;;;;10.82;100.00;96253.44;4143411;28;20235;-47
2022/11/17 05:36:59;;;;;;;0.82;0.82;;;;;;;10.81;100.00;96247.47;4150269;28;20657;-47
2022/11/17 05:39:01;;;;;;;0.80;0.80;;;;;;;10.83;100.00;96246.84;4133239;28;20210;-48
2022/11/17 05:41:03;;;;;;;1.20;1.10;;;;;;;10.83;100.00;96259.72;4150619;28;20602;-48
2022/11/17 05:43:05;;;;;;;2.28;1.08;;;;;;;10.77;100.00;96258.22;4137832;28;20237;-47
2022/11/17 05:45:07;;;;;;;1.45;0.80;;;;;;;10.75;100.00;96262.38;4150179;28;20969;-47
2022/11/17 05:47:09;;;;;;;0.70;0.70;;;;;;;10.75;100.00;96254.16;4148623;28;20205;-49
2022/11/17 05:49:11;;;;;;;1.20;1.00;;;;;;;10.72;100.00;96261.03;4135086;28;21256;-47
2022/11/17 05:51:12;;;;;;;1.13;1.00;;;;;;;10.71;100.00;96261.34;4132036;28;20206;-47
2022/11/17 05:53:14;;;;;;;0.90;0.90;;;;;;;10.77;100.00;96259.00;4134775;28;20229;-47
2022/11/17 05:55:16;;;;;;;0.82;0.82;;;;;;;10.79;100.00;96267.69;4133031;28;20307;-47
2022/11/17 05:57:25;;;;;;;0.90;0.90;;;;;;;10.82;100.00;96254.53;4134202;28;20256;-47
2022/11/17 05:59:27;;;;;;;2.03;0.98;;;;;;;10.85;100.00;96246.53;4138299;28;20209;-48
2022/11/17 06:01:29;;;;;;;1.10;1.10;;;;;;;10.85;100.00;96277.41;4126589;28;20210;-47
2022/11/17 06:03:35;;;;;;;0.82;0.82;;;;;;;10.82;100.00;96265.50;4125333;28;20233;-47
2022/11/17 06:05:37;;;;;;;1.05;0.95;;;;;;;10.81;100.00;96259.19;4132420;28;20205;-47
2022/11/17 06:07:39;;;;;;;0.68;0.68;;;;;;;10.83;100.00;96265.97;4127808;28;20201;-47
2022/11/17 06:09:41;;;;;;;1.02;0.82;;;;;;;10.82;100.00;96261.63;4130498;28;20304;-47
2022/11/17 06:11:43;;;;;;;1.55;1.20;;;;;;;10.84;100.00;96259.38;4132220;28;20206;-47
2022/11/17 06:13:45;;;;;;;0.60;0.57;;;;;;;10.84;100.00;96259.38;4134231;28;20241;-47
2022/11/17 06:15:46;;;;;;;0.80;0.80;;;;;;;10.87;100.00;96259.91;4133736;28;20834;-47
2022/11/17 06:17:56;;;;;;;2.60;0.98;;;;;;;10.86;100.00;96264.56;4146371;28;20319;-48
2022/11/17 06:20:20;;;;;;;0.70;0.70;;;;;;;10.87;100.00;96262.66;4134293;28;20243;-46
2022/11/17 06:22:23;;;;;;;0.70;0.70;;;;;;;10.92;100.00;96261.41;4131172;28;20291;-47
2022/11/17 06:24:25;;;;;;;0.88;0.88;;;;;;;10.94;100.00;96261.91;4137107;28;20201;-47
2022/11/17 06:26:27;;;;;;;1.30;0.90;;;;;;;10.92;100.00;96272.34;4117780;28;20306;-48
2022/11/17 06:28:30;;;;;;;4.13;1.13;;;;;;;11.00;100.00;96270.81;4132585;28;20299;-48
2022/11/17 06:30:34;;;;;;;1.30;0.95;;;;;;;10.99;100.00;96277.41;4134669;28;20911;-47
2022/11/17 06:32:37;;;;;;;0.90;0.90;;;;;;;11.03;100.00;96284.69;4119478;28;20210;-47
2022/11/17 06:34:40;;;;;;;1.45;1.30;;;;;;;11.01;100.00;96276.00;4131638;28;20210;-47
2022/11/17 06:36:42;;;;;;;0.95;0.90;;;;;;;11.05;100.00;96266.03;4134870;28;20395;-48
2022/11/17 06:38:44;;;;;;;0.77;0.77;;;;;;;11.11;100.00;96269.47;4139522;28;20291;-45
2022/11/17 06:40:45;;;;;;;4.32;0.98;;;;;;;11.14;100.00;96269.69;4135232;28;20213;-45
2022/11/17 06:43:02;;;;;;;1.00;1.00;;;;;;;11.10;100.00;96274.13;4136281;28;20367;-46
2022/11/17 06:45:04;;;;;;;1.40;0.88;;;;;;;11.10;100.00;96271.41;4149682;28;20547;-46
2022/11/17 06:47:06;;;;;;;1.77;1.00;;;;;;;11.10;100.00;96270.59;4135032;28;20193;-45
2022/11/17 06:49:08;;;;;;;0.90;0.90;;;;;;;11.13;100.00;96262.59;4126079;28;20253;-46
2022/11/17 06:51:10;;;;;;;1.65;0.93;;;;;;;11.08;100.00;96264.59;4132637;28;20245;-46
2022/11/17 06:53:11;;;;;;;2.25;1.23;;;;;;;11.05;100.00;96273.44;4130976;28;20237;-46
2022/11/17 06:55:13;;;;;;;1.52;0.95;;;;;;;11.07;100.00;96268.47;4132075;28;20344;-47
2022/11/17 06:57:15;;;;;;;1.27;0.98;;;;;;;11.14;100.00;96266.94;4133184;28;20225;-46
2022/11/17 06:59:17;;;;;;;0.80;0.80;;;;;;;11.05;100.00;96282.44;4135856;28;20793;-46
2022/11/17 07:01:19;;;;;;;3.95;1.00;;;;;;;11.09;100.00;96277.16;4139935;28;20266;-47
2022/11/17 07:03:20;;;;;;;3.53;0.90;;;;;;;11.16;100.00;96272.91;4129873;28;20233;-45
2022/11/17 07:05:22;;;;;;;1.85;1.52;;;;;;;11.16;100.00;96283.84;4130580;28;20765;-45
2022/11/17 07:07:24;;;;;;;1.13;0.95;;;;;;;11.10;100.00;96274.13;4146841;28;20205;-46
2022/11/17 07:09:29;;;;;;;1.92;1.02;;;;;;;11.09;100.00;96272.50;4133471;28;20653;-46
2022/11/17 07:11:33;;;;;;;3.03;1.25;;;;;;;11.02;100.00;96283.06;4146672;28;20205;-46
2022/11/17 07:13:36;;;;;;;6.18;1.73;;;;;;;11.05;100.00;96282.44;4115216;28;20320;-45
2022/11/17 07:15:37;;;;;;;3.63;1.13;;;;;;;11.01;100.00;96281.47;4134264;28;20208;-46
2022/11/17 07:17:39;;;;;;;1.90;0.88;;;;;;;11.00;100.00;96284.50;4136843;28;20225;-47
2022/11/17 07:19:41;;;;;;;0.85;0.80;;;;;;;10.99;100.00;96299.31;4122211;28;20218;-46
2022/11/17 07:21:42;;;;;;;2.00;1.40;;;;;;;11.00;100.00;96296.25;4134872;28;20343;-46
2022/11/17 07:23:44;;;;;;;1.52;0.80;;;;;;;11.05;100.00;96298.88;4137706;28;20222;-47
2022/11/17 07:25:46;;;;;;;1.75;1.02;;;;;;;11.01;100.00;96297.06;4134579;28;20213;-46
2022/11/17 07:27:48;;;;;;;0.70;0.70;;;;;;;10.98;100.00;96303.16;4135401;28;20209;-45
2022/11/17 07:29:49;;;;;;;2.72;1.08;;;;;;;11.00;100.00;96296.25;4135031;28;20211;-46
2022/11/17 07:31:51;;;;;;;1.20;1.10;;;;;;;10.98;100.00;96287.53;4132786;28;20222;-46
2022/11/17 07:33:53;;;;;;;0.70;0.70;;;;;;;11.02;100.00;96306.88;4132307;28;20320;-46
2022/11/17 07:35:55;;;;;;;1.45;0.68;;;;;;;11.02;100.00;96321.38;4134867;28;20206;-47
2022/11/17 07:37:58;;;;;;;0.73;0.73;;;;;;;11.06;100.00;96316.94;4133563;28;20225;-46
2022/11/17 07:40:00;;;;;;;1.55;0.90;;;;;;;11.03;100.00;96306.59;4138211;28;20216;-46
2022/11/17 07:42:01;;;;;;;0.70;0.70;;;;;;;11.06;100.00;96305.16;4134193;28;20772;-47
2022/11/17 07:44:03;;;;;;;0.60;0.60;;;;;;;11.04;100.00;96319.16;4139791;28;20618;-46
2022/11/17 07:46:12;;;;;;;1.58;1.10;;;;;;;11.01;100.00;96313.47;4138983;28;20206;-46
2022/11/17 07:48:14;;;;;;;2.70;1.20;;;;;;;10.94;100.00;96302.97;4138208;28;20197;-46
2022/11/17 07:50:16;;;;;;;1.67;0.82;;;;;;;10.86;100.00;96311.06;4135116;28;23063;-46
2022/11/17 07:52:18;;;;;;;0.65;0.65;;;;;;;10.86;100.00;96316.53;4133551;28;20279;-46
2022/11/17 07:54:20;;;;;;;0.85;0.85;;;;;;;10.79;100.00;96321.63;4134032;28;20344;-47
2022/11/17 07:56:22;;;;;;;0.73;0.73;;;;;;;10.77;100.00;96323.84;4132039;28;20306;-46
2022/11/17 07:58:24;;;;;;;1.70;0.90;;;;;;;10.71;100.00;96326.97;4133802;28;20320;-46
2022/11/17 08:00:28;;;;;;;0.80;0.80;;;;;;;10.69;100.00;96329.22;4149129;28;20205;-46
2022/11/17 08:02:29;;;;;;;1.02;0.80;;;;;;;10.64;100.00;96324.66;4133190;28;20225;-46
2022/11/17 08:04:31;;;;;;;2.65;0.90;;;;;;;10.65;100.00;96323.53;4135419;28;20229;-46
2022/11/17 08:06:33;;;;;;;1.08;1.00;;;;;;;10.55;100.00;96331.13;4137501;28;20216;-46
2022/11/17 08:08:35;;;;;;;1.40;1.10;;;;;;;10.54;100.00;96326.78;4136715;28;20691;-47
2022/11/17 08:10:38;;;;;;;2.83;1.00;;;;;;;10.56;100.00;96330.81;4133709;28;20216;-46
2022/11/17 08:12:40;;;;;;;3.20;1.27;;;;;;;10.66;100.00;96324.34;4136712;28;20241;-47
2022/11/17 08:14:41;;;;;;;1.48;1.10;;;;;;;10.65;100.00;96336.41;4139180;28;20217;-47
2022/11/17 08:16:43;;;;;;;6.22;0.85;;;;;;;10.63;100.00;96324.97;4135245;28;20210;-47
2022/11/17 08:18:47;;;;;;;5.30;1.42;;;;;;;10.52;100.00;96332.56;4138502;28;20336;-47
2022/11/17 08:21:19;;;;;;;1.90;1.23;;;;;;;10.53;100.00;96339.63;4135475;28;20209;-47
2022/11/17 08:23:21;;;;;;;1.08;0.80;;;;;;;10.51;100.00;96352.00;4133944;28;20227;-47
2022/11/17 08:25:24;;;;;;;2.75;1.15;;;;;;;10.53;100.00;96330.63;4116746;28;20209;-47
2022/11/17 08:27:26;;;;;;;2.42;1.27;;;;;;;10.52;100.00;96339.94;4121790;28;20630;-46
2022/11/17 08:29:27;;;;;;;1.20;0.60;;;;;;;10.98;100.00;96339.53;4147180;28;20303;-47
2022/11/17 08:31:29;;;;;;;3.70;1.10;;;;;;;11.34;100.00;96340.38;4131565;28;20218;-46
2022/11/17 08:33:32;;;;;;;1.00;0.95;;;;;;;11.21;100.00;96346.69;4110474;28;20287;-47
2022/11/17 08:35:33;;;;;;;4.10;1.05;;;;;;;11.24;100.00;96346.06;4131569;28;21023;-46
2022/11/17 08:37:39;;;;;;;3.22;1.48;;;;;;;11.18;100.00;96341.81;4139455;28;20889;-46
2022/11/17 08:39:41;;;;;;;5.28;2.30;;;;;;;11.12;100.00;96348.53;4133958;28;20276;-47
2022/11/17 08:41:43;;;;;;;1.75;1.40;;;;;;;11.31;100.00;96351.94;4146598;28;20207;-47
2022/11/17 08:43:45;;;;;;;2.50;2.30;;;;;;;11.23;100.00;96357.34;4133548;28;20659;-47
2022/11/17 08:45:47;;;;;;;2.17;1.63;;;;;;;11.08;100.00;96347.53;4136745;28;20209;-46
2022/11/17 08:47:52;;;;;;;4.10;1.25;;;;;;;11.04;100.00;96360.19;4135515;28;20205;-46
2022/11/17 08:49:54;;;;;;;4.00;1.40;;;;;;;11.02;100.00;96367.91;4136345;28;20213;-45
2022/11/17 08:51:56;;;;;;;3.33;1.42;;;;;;;11.01;100.00;96388.19;4122015;28;20265;-46
2022/11/17 08:53:57;;;;;;;2.15;0.98;;;;;;;10.95;100.00;96381.19;4140720;28;20348;-46
2022/11/17 08:55:59;;;;;;;2.53;1.20;;;;;;;10.95;100.00;96383.09;4134100;28;20209;-46
2022/11/17 08:58:02;;;;;;;1.95;1.13;;;;;;;10.93;100.00;96372.47;4135440;28;20231;-46
2022/11/17 09:00:05;;;;;;;5.68;1.75;;;;;;;10.94;100.00;96389.69;4133980;28;20611;-46
2022/11/17 09:02:07;;;;;;;4.95;1.88;;;;;;;10.94;100.00;96390.53;4134300;28;20244;-46
2022/11/17 09:04:09;;;;;;;4.15;1.17;;;;;;;10.87;100.00;96396.69;4148342;28;20241;-48
2022/11/17 09:06:11;;;;;;;3.97;1.98;;;;;;;10.85;100.00;96402.47;4136441;28;20292;-46
2022/11/17 09:08:13;;;;;;;0.90;0.82;;;;;;;10.78;100.00;96391.13;4137862;28;20216;-46
2022/11/17 09:10:36;;;;;;;1.27;1.10;;;;;;;10.71;100.00;96384.41;4145148;28;20208;-47
2022/11/17 09:12:38;;;;;;;2.42;1.30;;;;;;;10.62;100.00;96391.72;4137326;28;21229;-46
2022/11/17 09:14:39;;;;;;;2.97;2.60;;;;;;;10.59;100.00;96403.22;4147766;28;20797;-47
2022/11/17 09:16:41;;;;;;;3.63;1.13;;;;;;;10.60;100.00;96391.19;4149672;28;20258;-47
2022/11/17 09:18:44;;;;;;;2.42;1.00;;;;;;;10.65;100.00;96399.28;4149408;28;20212;-47
2022/11/17 09:20:45;;;;;;;3.13;1.20;;;;;;;10.70;100.00;96396.47;4116812;28;20301;-46
2022/11/17 09:22:47;;;;;;;4.07;1.15;;;;;;;10.79;100.00;96401.72;4135145;28;20229;-47
2022/11/17 09:24:49;;;;;;;4.78;1.45;;;;;;;11.04;100.00;96403.97;4149711;28;20209;-47
2022/11/17 09:26:53;;;;;;;1.70;1.20;;;;;;;11.23;100.00;96409.38;4146657;28;20208;-47
2022/11/17 09:28:54;;;;;;;1.17;0.85;;;;;;;11.33;100.00;96409.13;4136720;28;20284;-46
2022/11/17 09:30:57;;;;;;;2.30;1.08;;;;;;;11.35;100.00;96407.72;4118827;28;20210;-46
2022/11/17 09:33:01;;;;;;;1.25;0.85;;;;;;;11.33;100.00;96415.44;4117777;28;20320;-47
2022/11/17 09:35:05;;;;;;;2.42;1.42;;;;;;;11.33;100.00;96417.34;4119400;28;20309;-46
2022/11/17 09:37:07;;;;;;;6.30;1.45;;;;;;;11.23;100.00;96421.09;4134245;28;20202;-48
2022/11/17 09:39:09;;;;;;;1.27;0.90;;;;;;;11.23;100.00;96414.84;4131534;28;20217;-47
2022/11/17 09:41:14;;;;;;;1.65;1.00;;;;;;;11.17;100.00;96427.78;4132643;28;20209;-47
2022/11/17 09:43:27;;;;;;;1.48;0.90;;;;;;;11.07;100.00;96429.94;4123914;28;20229;-47
2022/11/17 09:45:33;;;;;;;4.13;0.90;;;;;;;11.00;100.00;96419.41;4131786;28;20236;-47
2022/11/17 09:47:45;;;;;;;4.10;1.40;;;;;;;11.08;100.00;96429.63;4134472;28;20204;-47
2022/11/17 09:49:52;;;;;;;2.10;0.98;;;;;;;11.00;100.00;96433.09;4137779;28;20300;-48
2022/11/17 09:52:04;;;;;;;1.50;1.20;;;;;;;10.90;100.00;96430.53;4149198;28;20229;-46
2022/11/17 09:54:38;;;;;;;2.72;1.02;;;;;;;10.86;100.00;96431.44;4133323;28;20350;-47
2022/11/17 09:56:40;;;;;;;2.08;1.20;;;;;;;10.82;100.00;96442.19;4136814;28;20288;-47
2022/11/17 09:58:47;;;;;;;1.05;0.93;;;;;;;10.85;100.00;96438.81;4136014;28;20243;-46
2022/11/17 10:00:51;;;;;;;5.50;1.27;;;;;;;10.91;100.00;96443.09;4133480;28;20213;-47
2022/11/17 10:02:54;;;;;;;1.92;1.02;;;;;;;10.95;100.00;96441.38;4133180;28;20261;-47
2022/11/17 10:04:56;;;;;;;3.15;1.02;;;;;;;10.84;100.00;96439.16;4117802;28;20975;-48